Time;durP1;ratioP1;P1;durP2;ratioP2;P2;SDS_P1;SDS_P2;PMS_P1;PMS_P2;Temp;Humidity;BMP_temperature;BMP_pressure;BME280_temperature;BME280_humidity;BME280_pressure;Samples;Min_cycle;Max_cycle;Signal;HPM_P1;HPM_P2
2022/02/11 00:02:16;;;;;;;4.43;3.78;;;6.40;99.90;;;;;;5073275;28;20200;-72
2022/02/11 00:07:30;;;;;;;4.32;3.42;;;6.30;99.90;;;;;;5043784;28;20190;-72
2022/02/11 00:09:58;;;;;;;5.55;3.42;;;6.30;99.90;;;;;;5053033;28;20211;-73
2022/02/11 00:12:27;;;;;;;4.63;4.22;;;6.30;99.90;;;;;;5053072;28;20201;-73
2022/02/11 00:15:02;;;;;;;5.07;3.80;;;6.30;99.90;;;;;;5052924;28;20197;-72
2022/02/11 00:17:30;;;;;;;6.80;3.97;;;6.20;99.90;;;;;;5053360;28;20235;-72
2022/02/11 00:19:56;;;;;;;5.82;3.45;;;6.20;99.90;;;;;;5052920;28;20209;-71
2022/02/11 00:22:23;;;;;;;5.30;3.72;;;6.20;99.90;;;;;;5052826;28;20204;-72
2022/02/11 00:24:52;;;;;;;4.72;3.80;;;6.20;99.90;;;;;;5052597;28;20237;-71
2022/02/11 00:27:43;;;;;;;4.68;3.50;;;6.20;99.90;;;;;;5052990;28;20720;-72
2022/02/11 00:33:09;;;;;;;4.75;3.75;;;6.20;99.90;;;;;;5051776;28;20195;-72
2022/02/11 00:35:42;;;;;;;4.85;3.58;;;6.20;99.90;;;;;;5052196;28;20327;-72
2022/02/11 00:38:13;;;;;;;4.53;3.85;;;6.10;99.90;;;;;;5052254;28;20208;-73
2022/02/11 00:41:14;;;;;;;4.10;3.45;;;6.10;99.90;;;;;;5052171;28;20252;-72
2022/02/11 00:46:47;;;;;;;3.92;3.55;;;6.10;99.90;;;;;;5048186;28;20581;-72
2022/02/11 01:03:01;;;;;;;5.63;3.83;;;6.20;99.90;;;;;;5029722;28;20493;-72
2022/02/11 01:05:28;;;;;;;6.45;4.03;;;6.20;99.90;;;;;;5051599;28;20236;-72
2022/02/11 01:07:54;;;;;;;7.15;3.92;;;6.20;99.90;;;;;;5051481;28;20228;-72
2022/02/11 01:10:23;;;;;;;5.38;4.45;;;6.20;99.90;;;;;;5051436;28;20208;-73
2022/02/11 01:12:49;;;;;;;7.18;4.32;;;6.20;99.90;;;;;;5051038;28;20197;-72
2022/02/11 01:15:18;;;;;;;8.80;4.85;;;6.20;99.90;;;;;;5051158;28;20212;-72
2022/02/11 01:17:49;;;;;;;7.22;4.38;;;6.20;99.90;;;;;;5051456;28;20572;-73
2022/02/11 01:20:20;;;;;;;6.90;5.15;;;6.20;99.90;;;;;;5051285;28;20308;-72
2022/02/11 01:23:08;;;;;;;5.50;4.93;;;6.20;99.90;;;;;;5050841;28;20197;-73
2022/02/11 01:28:34;;;;;;;7.82;5.55;;;6.20;99.90;;;;;;5043778;28;20204;-72
2022/02/11 01:31:11;;;;;;;6.32;4.80;;;6.20;99.90;;;;;;5050176;28;20213;-73
2022/02/11 01:36:43;;;;;;;9.40;5.07;;;6.10;99.90;;;;;;5040389;28;20287;-73
2022/02/11 01:39:38;;;;;;;6.80;5.22;;;6.10;99.90;;;;;;5050839;28;20262;-72
2022/02/11 01:43:16;;;;;;;6.07;4.78;;;6.10;99.90;;;;;;5050441;28;20201;-71
2022/02/11 01:45:24;;;;;;;5.00;4.47;;;6.00;99.90;;;;;;5050626;28;20221;-74
2022/02/11 01:48:44;;;;;;;7.65;5.07;;;6.00;99.90;;;;;;5050817;28;20215;-73
2022/02/11 01:51:29;;;;;;;7.03;6.10;;;6.00;99.90;;;;;;5050553;28;20214;-73
2022/02/11 01:54:04;;;;;;;7.28;5.55;;;6.00;99.90;;;;;;5050285;28;20197;-72
2022/02/11 01:56:41;;;;;;;7.55;5.70;;;6.00;99.90;;;;;;5050857;28;20268;-73
2022/02/11 02:10:54;;;;;;;6.43;4.70;;;5.90;99.90;;;;;;5008895;28;20197;-73
2022/02/11 02:13:45;;;;;;;5.18;4.60;;;6.00;99.90;;;;;;5040028;28;20292;-73
2022/02/11 02:19:45;;;;;;;7.63;5.10;;;5.90;99.90;;;;;;5050317;28;20318;-71
2022/02/11 02:24:58;;;;;;;4.18;3.75;;;5.90;99.90;;;;;;5028949;28;20275;-73
2022/02/11 02:27:46;;;;;;;3.75;3.45;;;5.90;99.90;;;;;;5050597;28;20204;-73
2022/02/11 02:38:53;;;;;;;5.35;3.70;;;5.90;99.90;;;;;;5046821;28;20652;-74
2022/02/11 02:57:59;;;;;;;3.22;2.95;;;5.80;99.90;;;;;;5054041;28;20656;-73
2022/02/11 03:17:50;;;;;;;5.30;3.13;;;5.50;99.90;;;;;;5053716;28;20727;-73
2022/02/11 04:23:31;;;;;;;1.50;1.40;;;3.40;99.90;;;;;;5048114;28;20204;-72
2022/02/11 04:26:59;;;;;;;1.50;1.40;;;3.30;99.90;;;;;;5052100;28;20235;-72
2022/02/11 04:56:45;;;;;;;2.63;2.40;;;2.70;99.90;;;;;;5040763;28;20220;-73
2022/02/11 05:01:57;;;;;;;2.47;2.28;;;2.60;99.90;;;;;;5048688;28;20203;-74
2022/02/11 05:04:24;;;;;;;2.40;2.20;;;2.50;99.90;;;;;;5050167;28;20784;-75
2022/02/11 05:06:51;;;;;;;2.13;2.03;;;2.50;99.90;;;;;;5049443;28;20209;-74
2022/02/11 05:09:20;;;;;;;2.40;2.20;;;2.40;99.90;;;;;;5049957;28;20193;-75
2022/02/11 05:11:46;;;;;;;2.70;2.20;;;2.30;99.90;;;;;;5050430;28;20249;-74
2022/02/11 05:14:14;;;;;;;4.18;2.55;;;2.30;99.90;;;;;;5049692;28;20661;-74
2022/02/11 05:16:40;;;;;;;2.58;2.30;;;2.30;99.90;;;;;;5050235;28;20213;-75
2022/02/11 05:19:07;;;;;;;2.38;2.17;;;2.40;99.90;;;;;;5049875;28;20676;-74
2022/02/11 05:21:34;;;;;;;2.28;2.08;;;2.40;99.90;;;;;;5050413;28;20575;-76
2022/02/11 05:24:01;;;;;;;3.10;2.90;;;2.40;99.90;;;;;;5048507;28;20463;-74
2022/02/11 05:26:29;;;;;;;3.10;2.80;;;2.50;99.90;;;;;;5049795;28;20424;-75
2022/02/11 05:28:56;;;;;;;2.78;2.58;;;2.50;99.90;;;;;;5050585;28;20601;-74
2022/02/11 05:31:22;;;;;;;3.42;3.10;;;2.50;99.90;;;;;;5051273;28;20227;-74
2022/02/11 05:33:49;;;;;;;2.58;2.38;;;2.50;99.90;;;;;;5050797;28;20201;-74
2022/02/11 05:36:16;;;;;;;4.47;2.20;;;2.50;99.90;;;;;;5083734;22;20220;-92
2022/02/11 05:38:43;;;;;;;3.55;2.90;;;2.50;99.90;;;;;;5081166;28;20271;-93
2022/02/11 05:41:11;;;;;;;3.17;2.88;;;2.50;99.90;;;;;;5081461;28;20209;-91
2022/02/11 05:43:40;;;;;;;2.88;2.67;;;2.60;99.90;;;;;;5078230;28;20211;-94
2022/02/11 05:46:09;;;;;;;3.20;2.90;;;2.60;99.90;;;;;;5081060;28;20235;-94
2022/02/11 05:48:38;;;;;;;2.95;2.72;;;2.60;99.90;;;;;;5082549;28;20204;-93
2022/02/11 05:51:05;;;;;;;3.05;2.75;;;2.60;99.90;;;;;;5085963;28;20214;-93
2022/02/11 05:53:32;;;;;;;3.17;2.88;;;2.70;99.90;;;;;;5080983;28;20208;-93
2022/02/11 05:55:59;;;;;;;3.80;2.67;;;2.70;99.90;;;;;;5084158;28;20232;-92
2022/02/11 05:58:26;;;;;;;5.22;3.38;;;2.70;99.90;;;;;;5084765;28;20215;-93
2022/02/11 06:00:54;;;;;;;3.10;2.80;;;2.70;99.90;;;;;;5084981;28;20204;-93
2022/02/11 06:03:21;;;;;;;3.30;3.00;;;2.70;99.90;;;;;;5085334;28;20208;-91
2022/02/11 06:05:48;;;;;;;6.88;3.05;;;2.70;99.90;;;;;;5084034;28;20232;-93
2022/02/11 06:08:14;;;;;;;3.20;2.90;;;2.70;99.90;;;;;;5085200;28;20299;-92
2022/02/11 06:10:41;;;;;;;3.20;2.92;;;2.70;99.90;;;;;;5083787;28;20208;-92
2022/02/11 06:13:08;;;;;;;3.08;2.72;;;2.70;99.90;;;;;;5081345;28;20207;-91
2022/02/11 06:15:35;;;;;;;5.78;3.30;;;2.70;99.90;;;;;;5077388;28;20231;-92
2022/02/11 06:18:03;;;;;;;3.63;3.13;;;2.70;99.90;;;;;;5076858;28;20196;-92
2022/02/11 06:20:30;;;;;;;7.57;3.50;;;2.70;99.90;;;;;;5081111;28;20212;-92
2022/02/11 06:22:57;;;;;;;3.90;3.60;;;2.60;99.90;;;;;;5081294;28;20196;-92
2022/02/11 06:25:25;;;;;;;4.35;3.40;;;2.60;99.90;;;;;;5078784;28;20307;-92
2022/02/11 06:27:51;;;;;;;3.80;3.40;;;2.60;99.90;;;;;;5083824;28;20204;-91
2022/02/11 06:30:18;;;;;;;4.93;3.22;;;2.60;99.90;;;;;;5090757;28;20668;-92
2022/02/11 06:32:47;;;;;;;5.72;4.03;;;2.50;99.90;;;;;;5080385;28;20205;-93
2022/02/11 06:35:15;;;;;;;3.70;3.40;;;2.60;99.90;;;;;;5083382;28;20227;-93
2022/02/11 06:37:45;;;;;;;5.00;3.40;;;2.60;99.90;;;;;;5083749;28;20243;-93
2022/02/11 06:40:13;;;;;;;3.67;3.38;;;2.60;99.90;;;;;;5082903;28;20200;-92
2022/02/11 06:42:40;;;;;;;4.45;3.15;;;2.60;99.90;;;;;;5085062;28;20204;-92
2022/02/11 06:45:08;;;;;;;3.72;3.40;;;2.60;99.90;;;;;;5088518;28;20193;-92
2022/02/11 06:47:35;;;;;;;3.45;3.15;;;2.50;99.90;;;;;;5091159;28;20204;-94
2022/02/11 06:50:02;;;;;;;6.05;3.50;;;2.50;99.90;;;;;;5097080;28;20188;-93
2022/02/11 06:52:30;;;;;;;4.28;3.40;;;2.40;99.90;;;;;;5097086;28;20187;-93
2022/02/11 06:54:57;;;;;;;3.45;3.08;;;2.40;99.90;;;;;;5094098;28;20188;-92
2022/02/11 06:57:24;;;;;;;3.50;2.90;;;2.30;99.90;;;;;;5087804;28;20220;-93
2022/02/11 06:59:51;;;;;;;3.97;3.05;;;2.20;99.90;;;;;;5081969;28;20213;-92
2022/02/11 07:02:19;;;;;;;3.50;3.20;;;2.20;99.90;;;;;;5082610;28;20212;-91
2022/02/11 07:04:49;;;;;;;3.55;2.88;;;2.20;99.90;;;;;;5078791;28;20204;-91
2022/02/11 07:07:15;;;;;;;4.05;3.00;;;2.20;99.90;;;;;;5081281;28;20224;-92
2022/02/11 07:09:44;;;;;;;4.63;3.50;;;2.10;99.90;;;;;;5090612;28;20197;-93
2022/02/11 07:12:11;;;;;;;5.45;3.15;;;2.10;99.90;;;;;;5089132;28;20228;-93
2022/02/11 07:14:38;;;;;;;3.28;2.88;;;2.10;99.90;;;;;;5088517;28;20235;-94
2022/02/11 07:17:05;;;;;;;4.05;3.65;;;2.10;99.90;;;;;;5083569;28;20235;-92
2022/02/11 07:19:35;;;;;;;3.60;3.20;;;2.00;99.90;;;;;;5078837;28;20272;-91
2022/02/11 07:22:02;;;;;;;4.45;3.33;;;2.00;99.90;;;;;;5078952;28;20200;-90
2022/02/11 07:24:30;;;;;;;3.90;3.45;;;2.00;99.90;;;;;;5080388;28;20208;-92
2022/02/11 07:26:59;;;;;;;3.38;3.08;;;1.90;99.90;;;;;;5083280;28;20209;-91
2022/02/11 07:29:26;;;;;;;4.28;3.20;;;2.00;99.90;;;;;;5087332;28;20196;-92
2022/02/11 07:31:53;;;;;;;3.55;3.25;;;2.00;99.90;;;;;;5083570;28;20208;-91
2022/02/11 07:34:20;;;;;;;5.80;3.75;;;1.90;99.90;;;;;;5082540;28;20219;-89
2022/02/11 07:36:47;;;;;;;6.13;3.10;;;1.90;99.90;;;;;;5081013;28;20303;-91
2022/02/11 07:39:14;;;;;;;4.93;3.60;;;2.00;99.90;;;;;;5086572;28;20197;-91
2022/02/11 07:41:41;;;;;;;5.45;3.50;;;2.00;99.90;;;;;;5087616;28;20597;-90
2022/02/11 07:44:10;;;;;;;5.00;3.40;;;2.10;99.90;;;;;;5095562;28;20211;-90
2022/02/11 07:46:37;;;;;;;2.95;2.72;;;2.30;99.90;;;;;;5099501;28;20239;-90
2022/02/11 07:49:04;;;;;;;3.72;3.35;;;2.50;99.90;;;;;;5099850;28;20188;-89
2022/02/11 07:51:31;;;;;;;4.80;2.70;;;2.90;99.90;;;;;;5099610;28;20299;-91
2022/02/11 07:53:58;;;;;;;3.30;2.45;;;4.00;99.90;;;;;;5098429;28;20270;-90
2022/02/11 07:56:26;;;;;;;2.90;2.60;;;5.30;99.90;;;;;;5097598;28;20322;-92
2022/02/11 07:58:54;;;;;;;2.83;2.25;;;6.80;99.90;;;;;;5097679;28;20236;-92
2022/02/11 08:01:22;;;;;;;3.28;2.22;;;8.20;99.90;;;;;;5091892;28;20204;-92
2022/02/11 08:03:50;;;;;;;4.63;2.38;;;9.40;99.90;;;;;;5087415;28;20681;-92
2022/02/11 08:06:18;;;;;;;5.45;2.33;;;10.20;99.90;;;;;;5083749;28;20274;-91
2022/02/11 08:08:44;;;;;;;3.63;2.40;;;11.00;98.60;;;;;;5078863;28;20214;-92
2022/02/11 08:11:11;;;;;;;3.35;2.70;;;11.60;98.30;;;;;;5075923;28;20196;-92
2022/02/11 08:13:38;;;;;;;2.28;1.88;;;11.90;96.80;;;;;;5075462;28;20188;-93
2022/02/11 08:16:06;;;;;;;4.40;2.10;;;11.40;96.90;;;;;;5077894;28;20224;-93
2022/02/11 08:18:35;;;;;;;4.00;1.90;;;10.90;96.70;;;;;;5078365;28;20207;-92
2022/02/11 08:21:02;;;;;;;3.25;2.40;;;9.90;97.70;;;;;;5077560;28;20603;-94
2022/02/11 08:23:29;;;;;;;3.10;2.00;;;8.80;98.70;;;;;;5075781;28;20200;-93
2022/02/11 08:25:55;;;;;;;3.45;2.30;;;8.00;99.90;;;;;;5075636;28;20231;-92
2022/02/11 08:28:22;;;;;;;3.75;2.67;;;8.50;99.90;;;;;;5077908;28;20204;-93
2022/02/11 08:30:50;;;;;;;4.45;2.55;;;9.40;98.50;;;;;;5078237;28;20208;-93
2022/02/11 08:33:21;;;;;;;2.40;2.20;;;10.70;97.30;;;;;;5075794;28;20257;-93
2022/02/11 08:35:50;;;;;;;8.90;2.78;;;11.30;95.50;;;;;;5075416;28;20228;-93
2022/02/11 08:38:17;;;;;;;4.82;2.65;;;10.70;95.70;;;;;;5077614;28;20211;-92
2022/02/11 08:40:44;;;;;;;3.00;2.50;;;9.70;97.30;;;;;;5076141;28;20249;-93
2022/02/11 08:43:11;;;;;;;3.05;2.30;;;9.00;98.20;;;;;;5072049;28;20227;-92
2022/02/11 08:45:40;;;;;;;5.07;2.42;;;8.30;98.70;;;;;;5073187;28;20211;-92
2022/02/11 08:48:08;;;;;;;2.65;2.33;;;7.60;99.50;;;;;;5073792;28;20230;-92
2022/02/11 08:50:34;;;;;;;3.95;2.17;;;6.90;99.70;;;;;;5073430;28;20214;-93
2022/02/11 08:54:04;;;;;;;;;;;;;;;;;;;;;
2022/02/11 08:56:43;;;;;;;3.95;2.47;;;5.90;99.90;;;;;;5063307;28;20331;-93
2022/02/11 08:59:10;;;;;;;2.85;2.50;;;8.10;99.50;;;;;;5075901;28;20317;-92
2022/02/11 09:01:42;;;;;;;4.43;2.33;;;9.30;98.00;;;;;;5080044;28;20204;-94
2022/02/11 09:04:12;;;;;;;4.38;2.50;;;10.60;96.30;;;;;;5093644;28;20254;-93
2022/02/11 09:06:39;;;;;;;3.63;2.25;;;11.50;95.60;;;;;;5077771;28;20242;-93
2022/02/11 09:09:08;;;;;;;2.92;2.03;;;13.20;94.20;;;;;;5074550;28;20577;-94
2022/02/11 09:11:36;;;;;;;5.88;2.10;;;14.30;92.00;;;;;;5074285;28;20200;-93
2022/02/11 09:14:03;;;;;;;3.95;2.45;;;14.90;91.30;;;;;;5073359;28;20207;-93
2022/02/11 09:16:31;;;;;;;2.47;2.03;;;15.20;90.00;;;;;;5073561;28;20732;-92
2022/02/11 09:18:58;;;;;;;3.35;2.60;;;15.20;89.00;;;;;;5074692;28;20227;-92
2022/02/11 09:21:25;;;;;;;3.80;2.28;;;15.30;88.20;;;;;;5073498;28;20215;-92
2022/02/11 09:23:52;;;;;;;4.28;2.13;;;15.40;87.60;;;;;;5074011;28;20206;-92
2022/02/11 09:26:19;;;;;;;3.80;2.90;;;15.90;87.10;;;;;;5074815;28;20224;-92
2022/02/11 09:28:47;;;;;;;2.93;2.13;;;16.40;87.30;;;;;;5074526;28;20203;-93
2022/02/11 09:31:18;;;;;;;3.23;2.17;;;17.50;85.90;;;;;;5073960;28;20454;-91
2022/02/11 09:33:45;;;;;;;2.40;2.20;;;18.10;81.50;;;;;;5073412;28;20477;-92
2022/02/11 09:36:12;;;;;;;3.87;1.80;;;17.10;82.80;;;;;;5073244;28;20502;-92
2022/02/11 09:38:39;;;;;;;2.63;1.60;;;17.10;82.00;;;;;;5073899;28;20516;-92
2022/02/11 09:41:06;;;;;;;2.90;2.10;;;17.50;82.20;;;;;;5073526;28;20463;-91
2022/02/11 09:43:33;;;;;;;2.93;2.20;;;17.90;79.40;;;;;;5073107;28;20470;-92
2022/02/11 09:46:02;;;;;;;4.00;2.30;;;17.60;81.80;;;;;;5072909;28;20478;-92
2022/02/11 09:48:29;;;;;;;5.13;2.40;;;18.20;80.90;;;;;;5097224;22;21150;-71
2022/02/11 09:50:56;;;;;;;2.50;2.30;;;18.60;77.90;;;;;;5089838;28;20949;-71
2022/02/11 09:53:27;;;;;;;3.00;2.70;;;18.20;78.50;;;;;;5089271;28;20540;-71
2022/02/11 09:55:54;;;;;;;2.60;2.40;;;17.80;80.00;;;;;;5089747;28;20477;-72
2022/02/11 09:58:20;;;;;;;5.50;2.40;;;16.30;80.50;;;;;;5090094;28;20865;-73
2022/02/11 10:00:49;;;;;;;3.10;1.97;;;14.50;82.10;;;;;;5089751;28;20454;-71
2022/02/11 10:03:19;;;;;;;4.03;2.53;;;12.90;85.80;;;;;;5090021;28;20468;-70
2022/02/11 10:05:47;;;;;;;4.05;2.45;;;11.50;88.80;;;;;;5088878;28;20227;-70
2022/02/11 10:08:14;;;;;;;4.05;2.58;;;10.10;90.80;;;;;;5089827;28;20227;-70
2022/02/11 10:10:44;;;;;;;3.53;2.65;;;9.10;92.30;;;;;;5089274;28;20211;-70
2022/02/11 10:13:13;;;;;;;5.30;2.60;;;8.40;93.40;;;;;;5089649;28;20718;-69
2022/02/11 10:15:43;;;;;;;4.38;2.70;;;7.80;94.30;;;;;;5088934;28;20216;-70
2022/02/11 10:18:12;;;;;;;2.70;2.20;;;7.40;94.80;;;;;;5090630;28;20671;-70
2022/02/11 10:20:42;;;;;;;3.47;2.75;;;7.90;95.10;;;;;;5090117;28;20206;-71
2022/02/11 10:23:17;;;;;;;4.18;2.30;;;9.40;93.90;;;;;;5089259;28;20204;-71
2022/02/11 10:25:55;;;;;;;3.75;2.50;;;11.20;91.70;;;;;;5089087;28;20230;-71
2022/02/11 10:28:25;;;;;;;5.20;2.75;;;13.70;90.90;;;;;;5089869;28;20869;-71
2022/02/11 10:31:06;;;;;;;4.03;2.05;;;15.20;85.50;;;;;;5089209;28;20203;-71
2022/02/11 10:33:49;;;;;;;2.95;2.10;;;16.40;84.20;;;;;;5088836;28;20199;-70
2022/02/11 10:36:18;;;;;;;2.07;1.87;;;17.30;81.10;;;;;;5089049;28;20226;-70
2022/02/11 10:38:44;;;;;;;7.10;2.63;;;17.50;81.40;;;;;;5088692;28;20461;-70
2022/02/11 10:41:11;;;;;;;2.53;2.33;;;17.70;81.70;;;;;;5089235;28;20454;-71
2022/02/11 10:43:38;;;;;;;3.40;1.90;;;18.10;81.00;;;;;;5088626;28;20464;-71
2022/02/11 10:46:15;;;;;;;4.03;2.60;;;18.80;80.40;;;;;;5088583;28;20481;-70
2022/02/11 10:48:43;;;;;;;2.97;1.90;;;18.70;79.50;;;;;;5089113;28;20468;-71
2022/02/11 10:51:23;;;;;;;3.80;2.40;;;17.00;79.20;;;;;;5089254;28;20823;-71
2022/02/11 10:53:50;;;;;;;3.43;2.20;;;14.90;81.90;;;;;;5087728;28;20862;-71
2022/02/11 10:56:17;;;;;;;3.57;2.20;;;13.30;84.90;;;;;;5088695;28;20473;-71
2022/02/11 10:58:53;;;;;;;3.35;2.30;;;11.90;87.30;;;;;;5089152;28;20461;-71
2022/02/11 11:01:20;;;;;;;5.07;2.30;;;10.60;90.20;;;;;;5088845;28;20200;-71
2022/02/11 11:03:47;;;;;;;3.28;2.45;;;10.40;90.20;;;;;;5088646;28;20685;-70
2022/02/11 11:06:15;;;;;;;4.50;2.72;;;10.10;90.60;;;;;;5090143;28;20228;-71
2022/02/11 11:08:44;;;;;;;2.42;2.15;;;10.10;91.30;;;;;;5092686;28;20593;-71
2022/02/11 11:11:12;;;;;;;5.03;2.10;;;10.70;91.70;;;;;;5093252;28;20208;-69
2022/02/11 11:13:40;;;;;;;3.03;2.10;;;12.30;90.10;;;;;;5092431;28;20272;-71
2022/02/11 11:16:10;;;;;;;2.40;2.00;;;13.30;87.80;;;;;;5092010;28;20262;-71
2022/02/11 11:18:38;;;;;;;5.57;2.58;;;13.70;86.30;;;;;;5092399;28;20679;-71
2022/02/11 11:21:07;;;;;;;3.38;2.20;;;13.10;86.20;;;;;;5092788;28;20207;-71
2022/02/11 11:23:37;;;;;;;3.45;2.47;;;12.30;87.50;;;;;;5091868;28;20203;-70
2022/02/11 11:26:09;;;;;;;4.50;2.65;;;11.90;89.10;;;;;;5092448;28;20221;-71
2022/02/11 11:28:48;;;;;;;2.85;2.45;;;12.10;89.00;;;;;;5092963;28;20228;-71
2022/02/11 11:31:18;;;;;;;6.40;2.40;;;11.70;89.70;;;;;;5092573;28;20200;-70
2022/02/11 11:33:45;;;;;;;9.38;2.58;;;11.00;90.40;;;;;;5092278;28;20196;-70
2022/02/11 11:36:14;;;;;;;3.42;2.20;;;10.10;91.30;;;;;;5104656;22;20247;-74
2022/02/11 11:38:46;;;;;;;5.80;3.05;;;9.30;92.20;;;;;;5073124;28;20212;-74
2022/02/11 11:41:23;;;;;;;4.22;2.47;;;8.80;93.00;;;;;;5073075;28;20200;-73
2022/02/11 11:43:52;;;;;;;2.70;1.92;;;8.20;93.50;;;;;;5072877;28;20573;-74
2022/02/11 11:46:34;;;;;;;5.38;2.47;;;7.80;94.30;;;;;;5058664;28;20708;-74
2022/02/11 11:49:03;;;;;;;3.63;2.00;;;7.50;95.10;;;;;;5071623;28;20204;-73
2022/02/11 11:51:32;;;;;;;3.33;2.03;;;7.40;95.60;;;;;;5070194;28;20204;-73
2022/02/11 11:54:24;;;;;;;2.42;2.20;;;7.30;95.60;;;;;;5070287;28;20204;-74
2022/02/11 11:56:56;;;;;;;5.78;2.13;;;7.20;95.40;;;;;;5062862;28;20707;-74
2022/02/11 11:59:25;;;;;;;4.53;2.28;;;7.00;95.70;;;;;;5071464;28;20200;-74
2022/02/11 12:01:54;;;;;;;3.53;2.03;;;6.80;96.00;;;;;;5071604;28;20206;-73
2022/02/11 12:04:25;;;;;;;3.10;2.58;;;6.80;96.20;;;;;;5070271;28;20212;-72
2022/02/11 12:06:56;;;;;;;4.90;2.40;;;6.70;96.60;;;;;;5071047;28;20251;-71
2022/02/11 12:09:24;;;;;;;3.42;2.28;;;6.80;96.70;;;;;;5071326;28;20205;-72
2022/02/11 12:12:03;;;;;;;2.47;1.98;;;7.20;97.20;;;;;;5071130;28;20212;-72
2022/02/11 12:14:31;;;;;;;2.67;2.08;;;9.10;94.40;;;;;;5071754;28;20583;-72
2022/02/11 12:17:00;;;;;;;3.28;1.95;;;10.00;92.20;;;;;;5069303;28;20216;-72
2022/02/11 12:19:27;;;;;;;3.28;1.70;;;10.20;91.80;;;;;;5071849;28;20204;-72
2022/02/11 12:21:55;;;;;;;3.83;1.70;;;10.90;91.40;;;;;;5070406;28;20201;-73
2022/02/11 12:27:21;;;;;;;4.70;2.28;;;12.50;86.60;;;;;;5070710;28;20362;-72
2022/02/11 12:29:50;;;;;;;3.75;2.15;;;12.50;85.70;;;;;;5070264;28;20242;-72
2022/02/11 12:32:18;;;;;;;4.38;1.95;;;13.50;88.00;;;;;;5070705;28;20204;-72
2022/02/11 12:34:49;;;;;;;3.40;1.80;;;15.00;82.30;;;;;;5068814;28;20200;-72
2022/02/11 12:37:16;;;;;;;3.55;1.60;;;15.50;79.90;;;;;;5071583;28;20550;-73
2022/02/11 12:39:43;;;;;;;4.22;1.50;;;15.20;80.10;;;;;;5071982;28;20216;-72
2022/02/11 12:42:11;;;;;;;10.45;2.15;;;14.00;79.70;;;;;;5071884;28;20204;-72
2022/02/11 12:44:39;;;;;;;4.85;2.40;;;13.00;82.80;;;;;;5071623;28;20200;-73
2022/02/11 12:47:06;;;;;;;2.05;1.50;;;12.10;85.10;;;;;;5071270;28;20473;-72
2022/02/11 12:49:33;;;;;;;4.07;1.60;;;11.90;86.20;;;;;;5072112;28;20240;-73
2022/02/11 12:52:01;;;;;;;2.65;1.58;;;12.40;84.70;;;;;;5071111;28;20200;-72
2022/02/11 12:54:28;;;;;;;2.20;1.70;;;12.10;82.90;;;;;;5071496;28;20209;-73
2022/02/11 12:57:02;;;;;;;3.25;1.60;;;11.30;84.30;;;;;;5071244;28;20660;-73
2022/02/11 12:59:30;;;;;;;4.70;1.83;;;10.50;84.50;;;;;;5071311;28;20578;-73
2022/02/11 13:01:57;;;;;;;4.72;1.70;;;9.80;89.20;;;;;;5069973;28;20204;-72
2022/02/11 13:04:24;;;;;;;2.40;1.70;;;9.30;90.00;;;;;;5070354;28;20205;-72
2022/02/11 13:06:51;;;;;;;3.72;1.85;;;8.80;90.30;;;;;;5068349;28;20217;-73
2022/02/11 13:09:21;;;;;;;1.95;1.58;;;8.30;91.40;;;;;;5071088;28;20228;-73
2022/02/11 13:11:54;;;;;;;3.35;2.20;;;8.00;91.90;;;;;;5070877;28;20208;-73
2022/02/11 13:14:20;;;;;;;2.88;2.15;;;7.70;92.40;;;;;;5070272;28;20212;-73
2022/02/11 13:16:49;;;;;;;2.20;2.00;;;7.50;92.80;;;;;;5070562;28;20232;-73
2022/02/11 13:19:17;;;;;;;4.35;2.15;;;7.30;92.90;;;;;;5070578;28;20196;-73
2022/02/11 13:21:45;;;;;;;4.30;2.65;;;7.20;93.50;;;;;;5070269;28;20204;-73
2022/02/11 13:24:12;;;;;;;3.17;2.30;;;7.20;93.70;;;;;;5070752;28;20573;-73
2022/02/11 13:26:39;;;;;;;3.03;2.20;;;7.10;93.80;;;;;;5069832;28;20231;-73
2022/02/11 13:29:13;;;;;;;2.58;2.28;;;7.00;93.70;;;;;;5054481;28;20298;-73
2022/02/11 13:31:47;;;;;;;3.10;2.80;;;7.00;94.10;;;;;;5050970;28;20201;-73
2022/02/11 13:34:15;;;;;;;2.03;1.83;;;6.90;93.50;;;;;;5046423;28;20209;-72
2022/02/11 13:36:47;;;;;;;2.58;1.73;;;7.40;93.00;;;;;;5051385;28;20240;-74
2022/02/11 13:39:28;;;;;;;3.65;2.10;;;8.40;93.20;;;;;;5050498;28;20197;-74
2022/02/11 13:41:55;;;;;;;5.05;2.70;;;9.40;91.60;;;;;;5051437;28;20201;-73
2022/02/11 13:44:22;;;;;;;4.30;2.25;;;9.30;91.50;;;;;;5050523;28;20223;-74
2022/02/11 13:46:53;;;;;;;2.95;1.83;;;9.00;91.50;;;;;;5050685;28;20283;-73
2022/02/11 13:49:22;;;;;;;2.78;1.88;;;9.20;91.40;;;;;;5050465;28;20221;-76
2022/02/11 13:54:58;;;;;;;3.67;1.80;;;11.00;90.10;;;;;;5050398;28;20547;-74
2022/02/11 13:57:26;;;;;;;3.50;1.90;;;11.10;87.10;;;;;;5050798;28;20228;-73
2022/02/11 13:59:53;;;;;;;2.75;1.75;;;11.00;89.90;;;;;;5050445;28;20212;-73
2022/02/11 14:02:21;;;;;;;2.90;1.90;;;11.40;87.70;;;;;;5050164;28;20404;-73
2022/02/11 14:05:02;;;;;;;2.95;2.00;;;11.80;87.80;;;;;;5050736;28;20259;-74
2022/02/11 14:07:29;;;;;;;2.60;2.25;;;12.20;86.50;;;;;;5050930;28;20295;-73
2022/02/11 14:09:56;;;;;;;2.75;1.95;;;12.00;85.60;;;;;;5050491;28;20207;-73
2022/02/11 14:12:31;;;;;;;2.65;2.00;;;11.20;85.40;;;;;;5049874;28;20215;-73
2022/02/11 14:15:02;;;;;;;2.20;1.73;;;10.60;87.80;;;;;;5050348;28;20205;-74
2022/02/11 14:17:30;;;;;;;2.88;1.80;;;10.20;87.10;;;;;;5050130;28;20201;-73
2022/02/11 14:19:58;;;;;;;3.67;2.00;;;9.50;89.40;;;;;;5050260;28;20200;-73
2022/02/11 14:22:25;;;;;;;2.95;2.13;;;8.90;91.40;;;;;;5049583;28;20197;-74
2022/02/11 14:24:52;;;;;;;3.05;2.28;;;8.50;91.60;;;;;;5067145;28;20204;-74
2022/02/11 14:27:19;;;;;;;3.17;2.13;;;8.10;91.40;;;;;;5069861;28;20228;-73
2022/02/11 14:29:46;;;;;;;4.57;2.25;;;7.70;91.70;;;;;;5070029;28;20223;-74
2022/02/11 14:32:13;;;;;;;4.10;2.40;;;7.60;92.40;;;;;;5069773;28;20201;-72
2022/02/11 14:34:41;;;;;;;3.67;2.28;;;7.80;92.10;;;;;;5070246;28;20200;-73
2022/02/11 14:37:09;;;;;;;1.95;1.70;;;8.00;92.60;;;;;;5069958;28;20232;-74
2022/02/11 14:39:37;;;;;;;3.30;2.30;;;8.10;91.70;;;;;;5070834;28;20267;-73
2022/02/11 14:42:06;;;;;;;3.25;2.13;;;8.00;92.30;;;;;;5073718;28;20232;-73
2022/02/11 14:44:36;;;;;;;4.40;2.20;;;8.10;92.60;;;;;;5073962;28;20299;-73
2022/02/11 14:47:05;;;;;;;7.80;2.50;;;8.40;92.70;;;;;;5073822;28;20664;-74
2022/02/11 14:49:32;;;;;;;4.50;2.20;;;8.60;93.40;;;;;;5073213;28;20219;-73
2022/02/11 14:52:00;;;;;;;4.68;2.30;;;9.00;92.70;;;;;;5073647;28;20223;-73
2022/02/11 14:54:31;;;;;;;3.25;2.50;;;9.40;91.80;;;;;;5073516;28;20250;-73
2022/02/11 14:56:58;;;;;;;3.10;2.00;;;9.80;91.50;;;;;;5071690;28;20220;-73
2022/02/11 14:59:25;;;;;;;3.35;2.38;;;10.20;89.10;;;;;;5073334;28;20200;-72
2022/02/11 15:01:53;;;;;;;2.53;1.85;;;10.10;89.40;;;;;;5070703;28;20196;-73
2022/02/11 15:04:20;;;;;;;4.00;2.10;;;10.30;88.90;;;;;;5071324;28;20208;-73
2022/02/11 15:06:50;;;;;;;2.63;2.10;;;10.40;87.10;;;;;;5073646;28;20224;-73
2022/02/11 15:09:19;;;;;;;4.00;2.10;;;9.80;88.40;;;;;;5073169;28;20342;-73
2022/02/11 15:11:47;;;;;;;3.13;2.10;;;9.40;89.40;;;;;;5069656;28;20293;-73
2022/02/11 15:14:14;;;;;;;2.63;1.90;;;9.10;88.10;;;;;;5069703;28;20299;-73
2022/02/11 15:16:41;;;;;;;5.07;2.25;;;8.70;89.60;;;;;;5072623;28;20220;-73
2022/02/11 15:19:08;;;;;;;3.47;2.05;;;8.20;90.40;;;;;;5071866;28;20205;-72
2022/02/11 15:21:36;;;;;;;2.63;1.88;;;7.80;90.70;;;;;;5073400;28;20204;-73
2022/02/11 15:24:03;;;;;;;3.83;1.85;;;7.60;91.20;;;;;;5072550;28;20473;-72
2022/02/11 15:26:30;;;;;;;2.67;1.95;;;7.20;91.30;;;;;;5073359;28;20714;-73
2022/02/11 15:28:58;;;;;;;2.65;2.15;;;7.10;91.50;;;;;;5073077;28;20224;-73
2022/02/11 15:31:24;;;;;;;4.18;3.13;;;6.90;91.30;;;;;;5073119;28;20213;-73
2022/02/11 15:33:52;;;;;;;3.75;2.60;;;6.70;92.00;;;;;;5072538;28;20205;-73
2022/02/11 15:36:20;;;;;;;6.03;3.20;;;6.60;92.00;;;;;;5072818;28;20228;-73
2022/02/11 15:38:47;;;;;;;3.47;3.15;;;6.50;92.20;;;;;;5073344;28;20723;-73
2022/02/11 15:41:14;;;;;;;3.85;2.70;;;6.30;92.60;;;;;;5072948;28;20209;-73
2022/02/11 15:43:41;;;;;;;13.75;5.30;;;6.20;92.60;;;;;;5072472;28;20211;-73
2022/02/11 15:46:10;;;;;;;7.10;4.70;;;6.20;93.00;;;;;;5073342;28;20655;-73
2022/02/11 15:48:39;;;;;;;2.78;2.30;;;6.10;93.10;;;;;;5073418;28;20231;-73
2022/02/11 15:51:07;;;;;;;5.97;2.42;;;6.10;93.10;;;;;;5071588;28;20579;-73
2022/02/11 15:53:34;;;;;;;6.95;2.67;;;6.00;93.40;;;;;;5072354;28;20204;-72
2022/02/11 15:56:01;;;;;;;9.43;5.05;;;5.90;93.30;;;;;;5067859;28;20236;-73
2022/02/11 15:58:29;;;;;;;6.88;5.65;;;5.80;93.80;;;;;;5070154;28;20688;-73
2022/02/11 16:00:56;;;;;;;4.25;3.85;;;5.80;93.90;;;;;;5071956;28;20562;-73
2022/02/11 16:03:25;;;;;;;4.32;3.08;;;5.80;94.10;;;;;;5070382;28;20212;-73
2022/02/11 16:05:52;;;;;;;3.53;3.17;;;5.80;93.90;;;;;;5071706;28;20333;-73
2022/02/11 16:08:20;;;;;;;8.75;6.70;;;5.70;94.20;;;;;;5071968;28;20252;-73
2022/02/11 16:10:46;;;;;;;9.35;6.90;;;5.60;94.20;;;;;;5071195;28;20212;-74
2022/02/11 16:13:13;;;;;;;6.00;4.03;;;5.60;94.50;;;;;;5070413;28;20208;-73
2022/02/11 16:15:41;;;;;;;5.15;3.40;;;5.50;94.40;;;;;;5071472;28;20243;-73
2022/02/11 16:18:14;;;;;;;11.30;3.08;;;5.50;94.20;;;;;;5070009;28;20207;-73